Flight Track Log - Related Links

Times and Time Zones

All times are in EDT time to prevent confusion due to time zone crossing. See the SWA1719 flight status page for this flight to view local times or setup timezone preferences in your user account.

Time Position Orientation Groundspeed Altitude Reporting Facility
EDT Latitude Longitude Course Direction KTS MPH feet Rate Location/Type
Fri 09:02:16 AM 35.0422 -106.5847 148° Southeast 166 191 5,900  Level Albuquerque Center
Fri 09:03:29 AM 34.9908 -106.5461 148° Southeast 237 273 8,100 1,617 Climbing Albuquerque Center
Fri 09:04:11 AM 34.9408 -106.5411 175° South 249 287 9,000 1,282 Climbing Albuquerque Center
Fri 09:05:12 AM 34.8586 -106.5378 178° South 272 313 10,300 2,182 Climbing Albuquerque Center
Fri 09:06:12 AM 34.7939 -106.4592 135° Southeast 333 383 13,400 3,074 Climbing Albuquerque Center
Fri 09:07:13 AM 34.7456 -106.3425 117° Southeast 373 429 16,500 2,852 Climbing Albuquerque Center
Fri 09:08:14 AM 34.6956 -106.2222 117° Southeast 394 453 19,200 2,479 Climbing Albuquerque Center
Fri 09:09:14 AM 34.6439 -106.0925 116° Southeast 415 478 21,500 2,380 Climbing Albuquerque Center
Fri 09:10:15 AM 34.5906 -105.9519 115° Southeast 444 511 24,000 2,262 Climbing Albuquerque Center
Fri 09:11:16 AM 34.5356 -105.8092 115° Southeast 458 527 26,100 1,934 Climbing Albuquerque Center
Fri 09:12:16 AM 34.4758 -105.6617 116° Southeast 475 547 27,900 1,785 Climbing Albuquerque Center
Fri 09:13:17 AM 34.3758 -105.5606 140° Southeast 464 534 29,700 1,721 Climbing Albuquerque Center
Fri 09:14:18 AM 34.2686 -105.4728 146° Southeast 460 529 31,400 2,016 Climbing Albuquerque Center
Fri 09:15:19 AM 34.1614 -105.3850 146° Southeast 462 532 33,800 1,967 Climbing Albuquerque Center
Fri 09:16:20 AM 34.0578 -105.3006 146° Southeast 455 524 35,400 1,587 Climbing Albuquerque Center
Fri 09:17:20 AM 33.9406 -105.1992 144° Southeast 463 533 37,000 1,388 Climbing Albuquerque Center
Fri 09:18:21 AM 33.8414 -105.1022 141° Southeast 461 531 38,200 984 Climbing Albuquerque Center
Fri 09:19:22 AM 33.7403 -105.0072 142° Southeast 462 532 39,000 393 Climbing Albuquerque Center
Fri 09:20:23 AM 33.6411 -104.9119 141° Southeast 459 528 39,000  Level Albuquerque Center
Fri 09:21:24 AM 33.5414 -104.8156 141° Southeast 463 533 39,000  Level Albuquerque Center
Fri 09:22:24 AM 33.4333 -104.7133 142° Southeast 461 531 39,000  Level Albuquerque Center
Fri 09:23:25 AM 33.3617 -104.5789 123° Southeast 493 567 39,000  Level Albuquerque Center
Fri 09:24:26 AM 33.3025 -104.4325 116° Southeast 495 570 39,000  Level Albuquerque Center
Fri 09:25:27 AM 33.2386 -104.2786 116° Southeast 496 571 39,000  Level Albuquerque Center
Fri 09:26:28 AM 33.1778 -104.1317 116° Southeast 495 570 39,000  Level Albuquerque Center
Fri 09:27:29 AM 33.1181 -103.9850 116° Southeast 494 568 39,000  Level Albuquerque Center
Fri 09:28:30 AM 33.0583 -103.8394 116° Southeast 489 563 39,000  Level Albuquerque Center
Fri 09:29:31 AM 32.9997 -103.7003 117° Southeast 492 566 39,000  Level Albuquerque Center
Fri 09:30:32 AM 32.9375 -103.5536 117° Southeast 495 570 39,000  Level Albuquerque Center
Fri 09:31:33 AM 32.8772 -103.4078 116° Southeast 494 568 39,000  Level Albuquerque Center
Fri 09:32:42 AM 32.8086 -103.2386 116° Southeast 492 566 39,000  Level Fort Worth Center
Fri 09:33:42 AM 32.7422 -103.0936 119° Southeast 492 566 39,000  Level Fort Worth Center
Fri 09:34:42 AM 32.6819 -102.9492 116° Southeast 492 566 39,000  Level Fort Worth Center
Fri 09:35:42 AM 32.6192 -102.8072 118° Southeast 492 566 39,000  Level Fort Worth Center
Fri 09:36:42 AM 32.5583 -102.6656 117° Southeast 492 566 39,000  Level Fort Worth Center
Fri 09:37:42 AM 32.4900 -102.5064 117° Southeast 492 566 39,000  Level Fort Worth Center
Fri 09:38:42 AM 32.4289 -102.3603 116° Southeast 492 566 39,000  Level Fort Worth Center
Fri 09:39:42 AM 32.3672 -102.2314 120° Southeast 500 575 39,000  Level Fort Worth Center
Fri 09:40:42 AM 32.3058 -102.0881 117° Southeast 494 568 39,000  Level Fort Worth Center
Fri 09:41:42 AM 32.2364 -101.9300 117° Southeast 497 572 39,000  Level Fort Worth Center
Fri 09:42:42 AM 32.1747 -101.7869 117° Southeast 497 572 39,000  Level Fort Worth Center
Fri 09:43:42 AM 32.1150 -101.6442 116° Southeast 492 566 39,000  Level Fort Worth Center
Fri 09:44:42 AM 32.0400 -101.5133 124° Southeast 487 560 39,000  Level Fort Worth Center
Fri 09:45:42 AM 31.9517 -101.3992 132° Southeast 481 554 39,000  Level Fort Worth Center
Fri 09:46:42 AM 31.8636 -101.2806 131° Southeast 481 554 39,000  Level Fort Worth Center
Fri 09:47:42 AM 31.7733 -101.1594 131° Southeast 475 547 39,000  Level Fort Worth Center
Fri 09:48:42 AM 31.6869 -101.0461 132° Southeast 475 547 39,000  Level Fort Worth Center
Fri 09:49:42 AM 31.5961 -100.9328 133° Southeast 475 547 39,000  Level Fort Worth Center
Fri 09:51:34 AM 31.4397 -100.7289 132° Southeast 473 544 39,000  Level Houston Center
Fri 09:52:36 AM 31.3508 -100.6117 132° Southeast 473 544 39,000  Level Houston Center
Fri 09:53:38 AM 31.2633 -100.4981 132° Southeast 476 548 39,000  Level Houston Center
Fri 09:54:39 AM 31.1731 -100.3836 133° Southeast 478 550 39,000  Level Houston Center
Fri 09:55:41 AM 31.0833 -100.2683 132° Southeast 479 551 39,000  Level Houston Center
Fri 09:56:43 AM 30.9764 -100.1286 132° Southeast 480 552 39,000  Level Houston Center
Fri 09:57:44 AM 30.8842 -100.0131 133° Southeast 484 557 39,000  Level Houston Center
Fri 09:58:46 AM 30.7939 -99.8967 132° Southeast 483 556 39,000  Level Houston Center
Fri 09:59:47 AM 30.7022 -99.7811 133° Southeast 483 556 39,000  Level Houston Center
Fri 10:00:49 AM 30.6119 -99.6661 132° Southeast 481 554 39,000  Level Houston Center
Fri 10:01:51 AM 30.5222 -99.5531 133° Southeast 476 548 39,000  Level Houston Center
Fri 10:02:52 AM 30.4319 -99.4392 133° Southeast 477 549 39,000  Level Houston Center
Fri 10:03:54 AM 30.3419 -99.3283 133° Southeast 474 545 39,000  Level Houston Center
Fri 10:04:56 AM 30.2528 -99.2169 133° Southeast 470 541 39,000  Level Houston Center
Fri 10:05:57 AM 30.1483 -99.0828 132° Southeast 466 536 39,000  Level Houston Center
Fri 10:06:59 AM 30.0589 -98.9742 134° Southeast 467 537 39,000  Level Houston Center
Fri 10:08:01 AM 29.9642 -98.8561 133° Southeast 468 539 39,000  Level Houston Center
Fri 10:09:02 AM 29.8783 -98.7433 131° Southeast 469 540 39,000 -49 Level Houston Center
Fri 10:10:04 AM 29.8481 -98.5892 103° East 497 572 38,900 -581 Descending Houston Center
Fri 10:11:06 AM 29.8247 -98.4194 99° East 500 575 37,800 -976 Descending Houston Center
Fri 10:12:07 AM 29.8028 -98.2614 99° East 498 573 36,900 -927 Descending Houston Center
Fri 10:13:09 AM 29.7800 -98.1019 99° East 504 580 35,900 -919 Descending Houston Center
Fri 10:14:11 AM 29.7558 -97.9297 99° East 505 581 35,000 -488 Descending Houston Center
Fri 10:15:12 AM 29.7308 -97.7903 102° East 504 580 34,900 -585 Descending Houston Center
Fri 10:16:14 AM 29.6742 -97.6533 115° Southeast 479 551 33,800 -1,016 Descending Houston Center
Fri 10:17:16 AM 29.6167 -97.5214 117° Southeast 468 539 32,800 -919 Descending Houston Center
Fri 10:18:18 AM 29.5467 -97.3600 116° Southeast 474 545 31,900 -919 Descending Houston Center
Fri 10:19:20 AM 29.4864 -97.2208 116° Southeast 486 559 30,900 -1,024 Descending Houston Center
Fri 10:20:21 AM 29.4269 -97.0844 117° Southeast 482 555 29,800 -1,902 Descending Houston Center
Fri 10:21:23 AM 29.3706 -96.9411 114° Southeast 469 540 27,000 -2,613 Descending Houston Center
Fri 10:22:25 AM 29.3150 -96.8042 115° Southeast 458 527 24,400 -2,323 Descending Houston Center
Fri 10:23:27 AM 29.2636 -96.6786 115° Southeast 447 514 22,200 -1,839 Descending Houston Center
Fri 10:24:29 AM 29.2158 -96.5617 115° Southeast 422 486 20,600 -1,694 Descending Houston Center
Fri 10:25:31 AM 29.1694 -96.4511 116° Southeast 397 457 18,700 -1,887 Descending Houston Center
Fri 10:26:33 AM 29.1600 -96.3386 95° East 378 435 16,700 -2,041 Descending Houston Center
Fri 10:27:08 AM 29.1953 -96.2656 61° Northeast 367 422 15,400 -1,839 Descending Houston Center
Fri 10:27:35 AM 29.2072 -96.2394 62° Northeast 360 414 14,800 -1,865 Descending Houston Center
Fri 10:28:22 AM 29.2519 -96.1444 62° Northeast 346 398 13,100 -2,129 Descending Houston Center
Fri 10:28:37 AM 29.2625 -96.1222 61° Northeast 353 406 12,600 -904 Descending Houston Center
Fri 10:29:35 AM 29.3072 -96.0306 61° Northeast 334 384 12,000 -353 Descending Houston Center
Fri 10:30:36 AM 29.3678 -95.9542 48° Northeast 314 361 11,900 -414 Descending Houston Center
Fri 10:31:31 AM 29.4261 -95.8781 49° Northeast 346 398 11,200 -884 Descending Houston Center
Fri 10:32:45 AM 29.4950 -95.7872 49° Northeast 349 402 10,000 -1,191 Descending Houston Center
Fri 10:33:47 AM 29.5536 -95.7097 49° Northeast 327 376 8,500 -1,552 Descending Houston Center
Fri 10:34:41 AM 29.6139 -95.6306 49° Northeast 312 359 7,000 -1,403 Descending Houston Center
Fri 10:35:51 AM 29.6750 -95.5447 51° Northeast 305 351 5,600 -1,045 Descending Houston Center
Fri 10:36:53 AM 29.7228 -95.4811 49° Northeast 268 308 4,700 -1,109 Descending Houston Center
Fri 10:37:50 AM 29.7528 -95.4242 59° Northeast 186 214 3,400 -1,261 Descending Houston Center
Fri 10:38:52 AM 29.7275 -95.3767 121° Southeast 167 192 2,200 -974 Descending Houston Center
Fri 10:39:47 AM 29.6994 -95.3464 137° Southeast 151 174 1,500 -744 Descending Houston Center
Fri 10:41:01 AM 29.6711 -95.3097 132° Southeast 145 167 600 -618 Descending Houston Center
Fri 10:42:03 AM 29.6519 -95.2875 135° Southeast 134 154 100 -484 Descending Houston Center
Fri 10:44:00 AM 29.6454 -95.2789 115° Southeast  Level Estimated

Login

Don't have an account? Register now (free) for customized features, flight alerts, and more!